sensor_id;sensor_type;location;lat;lon;timestamp;temperature;humidity
71088;SHT31;58747;50.674;4.616;2022-10-29T00:02:18;16.37;87.10
71088;SHT31;58747;50.674;4.616;2022-10-29T00:04:43;16.37;86.96
71088;SHT31;58747;50.674;4.616;2022-10-29T00:07:09;16.28;87.53
71088;SHT31;58747;50.674;4.616;2022-10-29T00:09:34;16.26;87.68
71088;SHT31;58747;50.674;4.616;2022-10-29T00:12:00;16.20;87.73
71088;SHT31;58747;50.674;4.616;2022-10-29T00:14:25;16.21;87.27
71088;SHT31;58747;50.674;4.616;2022-10-29T00:16:50;16.20;87.31
71088;SHT31;58747;50.674;4.616;2022-10-29T00:19:16;16.13;87.70
71088;SHT31;58747;50.674;4.616;2022-10-29T00:21:41;16.06;88.10
71088;SHT31;58747;50.674;4.616;2022-10-29T00:24:10;16.02;88.33
71088;SHT31;58747;50.674;4.616;2022-10-29T00:26:35;15.97;88.57
71088;SHT31;58747;50.674;4.616;2022-10-29T00:29:01;15.86;88.87
71088;SHT31;58747;50.674;4.616;2022-10-29T00:31:26;15.89;88.60
71088;SHT31;58747;50.674;4.616;2022-10-29T00:33:53;15.86;88.13
71088;SHT31;58747;50.674;4.616;2022-10-29T00:36:21;15.83;87.95
71088;SHT31;58747;50.674;4.616;2022-10-29T00:38:47;15.81;88.28
71088;SHT31;58747;50.674;4.616;2022-10-29T00:41:16;15.68;88.71
71088;SHT31;58747;50.674;4.616;2022-10-29T00:43:50;15.65;88.35
71088;SHT31;58747;50.674;4.616;2022-10-29T00:46:21;15.57;88.53
71088;SHT31;58747;50.674;4.616;2022-10-29T00:48:51;15.57;88.51
71088;SHT31;58747;50.674;4.616;2022-10-29T00:51:19;15.54;88.75
71088;SHT31;58747;50.674;4.616;2022-10-29T00:54:00;15.57;88.53
71088;SHT31;58747;50.674;4.616;2022-10-29T00:56:28;15.58;88.39
71088;SHT31;58747;50.674;4.616;2022-10-29T00:58:54;15.59;88.31
71088;SHT31;58747;50.674;4.616;2022-10-29T01:01:20;15.55;88.61
71088;SHT31;58747;50.674;4.616;2022-10-29T01:03:46;15.51;88.85
71088;SHT31;58747;50.674;4.616;2022-10-29T01:06:12;15.54;88.71
71088;SHT31;58747;50.674;4.616;2022-10-29T01:08:38;15.52;88.45
71088;SHT31;58747;50.674;4.616;2022-10-29T01:16:46;15.52;88.44
71088;SHT31;58747;50.674;4.616;2022-10-29T01:22:15;15.52;88.86
71088;SHT31;58747;50.674;4.616;2022-10-29T01:30:37;15.55;89.58
71088;SHT31;58747;50.674;4.616;2022-10-29T01:33:14;15.61;89.66
71088;SHT31;58747;50.674;4.616;2022-10-29T01:35:50;15.66;89.40
71088;SHT31;58747;50.674;4.616;2022-10-29T01:38:35;15.66;89.10
71088;SHT31;58747;50.674;4.616;2022-10-29T01:41:20;15.70;89.35
71088;SHT31;58747;50.674;4.616;2022-10-29T01:43:55;15.72;89.63
71088;SHT31;58747;50.674;4.616;2022-10-29T01:46:27;15.75;89.74
71088;SHT31;58747;50.674;4.616;2022-10-29T01:49:01;15.75;89.68
71088;SHT31;58747;50.674;4.616;2022-10-29T01:51:31;15.76;89.74
71088;SHT31;58747;50.674;4.616;2022-10-29T01:53:59;15.73;89.94
71088;SHT31;58747;50.674;4.616;2022-10-29T01:56:25;15.73;89.92
71088;SHT31;58747;50.674;4.616;2022-10-29T01:58:53;15.63;90.15
71088;SHT31;58747;50.674;4.616;2022-10-29T02:01:48;15.55;90.42
71088;SHT31;58747;50.674;4.616;2022-10-29T02:09:57;15.38;90.64
71088;SHT31;58747;50.674;4.616;2022-10-29T02:12:34;15.34;90.53
71088;SHT31;58747;50.674;4.616;2022-10-29T02:15:07;15.35;89.93
71088;SHT31;58747;50.674;4.616;2022-10-29T02:17:34;15.30;89.82
71088;SHT31;58747;50.674;4.616;2022-10-29T02:20:08;15.27;89.99
71088;SHT31;58747;50.674;4.616;2022-10-29T02:22:34;15.27;90.14
71088;SHT31;58747;50.674;4.616;2022-10-29T02:25:00;15.30;89.84
71088;SHT31;58747;50.674;4.616;2022-10-29T02:27:26;15.28;89.89
71088;SHT31;58747;50.674;4.616;2022-10-29T02:29:51;15.21;90.28
71088;SHT31;58747;50.674;4.616;2022-10-29T02:32:17;15.17;90.73
71088;SHT31;58747;50.674;4.616;2022-10-29T02:34:42;15.16;90.87
71088;SHT31;58747;50.674;4.616;2022-10-29T02:37:07;15.18;90.83
71088;SHT31;58747;50.674;4.616;2022-10-29T02:39:33;15.21;90.71
71088;SHT31;58747;50.674;4.616;2022-10-29T02:41:58;15.18;91.06
71088;SHT31;58747;50.674;4.616;2022-10-29T02:44:23;15.21;91.18
71088;SHT31;58747;50.674;4.616;2022-10-29T02:46:49;15.26;90.80
71088;SHT31;58747;50.674;4.616;2022-10-29T02:49:14;15.27;90.90
71088;SHT31;58747;50.674;4.616;2022-10-29T02:51:40;15.27;91.06
71088;SHT31;58747;50.674;4.616;2022-10-29T02:54:05;15.30;90.86
71088;SHT31;58747;50.674;4.616;2022-10-29T02:56:30;15.31;90.78
71088;SHT31;58747;50.674;4.616;2022-10-29T02:58:56;15.35;90.65
71088;SHT31;58747;50.674;4.616;2022-10-29T03:01:21;15.37;90.48
71088;SHT31;58747;50.674;4.616;2022-10-29T03:03:46;15.41;90.42
71088;SHT31;58747;50.674;4.616;2022-10-29T03:06:17;15.35;90.69
71088;SHT31;58747;50.674;4.616;2022-10-29T03:08:43;15.37;90.84
71088;SHT31;58747;50.674;4.616;2022-10-29T03:11:09;15.42;90.48
71088;SHT31;58747;50.674;4.616;2022-10-29T03:13:34;15.41;90.81
71088;SHT31;58747;50.674;4.616;2022-10-29T03:15:59;15.44;90.71
71088;SHT31;58747;50.674;4.616;2022-10-29T03:18:25;15.45;90.61
71088;SHT31;58747;50.674;4.616;2022-10-29T03:20:50;15.45;90.61
71088;SHT31;58747;50.674;4.616;2022-10-29T03:23:16;15.44;90.65
71088;SHT31;58747;50.674;4.616;2022-10-29T03:25:41;15.39;90.82
71088;SHT31;58747;50.674;4.616;2022-10-29T03:28:06;15.39;91.44
71088;SHT31;58747;50.674;4.616;2022-10-29T03:30:32;15.37;91.50
71088;SHT31;58747;50.674;4.616;2022-10-29T03:32:57;15.31;92.04
71088;SHT31;58747;50.674;4.616;2022-10-29T03:35:22;15.28;92.35
71088;SHT31;58747;50.674;4.616;2022-10-29T03:37:49;15.30;92.54
71088;SHT31;58747;50.674;4.616;2022-10-29T03:40:15;15.32;92.33
71088;SHT31;58747;50.674;4.616;2022-10-29T03:42:41;15.32;92.35
71088;SHT31;58747;50.674;4.616;2022-10-29T03:45:08;15.28;92.57
71088;SHT31;58747;50.674;4.616;2022-10-29T03:47:34;15.34;92.37
71088;SHT31;58747;50.674;4.616;2022-10-29T03:50:00;15.44;92.22
71088;SHT31;58747;50.674;4.616;2022-10-29T03:52:25;15.39;92.37
71088;SHT31;58747;50.674;4.616;2022-10-29T03:54:50;15.41;92.34
71088;SHT31;58747;50.674;4.616;2022-10-29T03:57:16;15.41;92.63
71088;SHT31;58747;50.674;4.616;2022-10-29T03:59:41;15.38;92.73
71088;SHT31;58747;50.674;4.616;2022-10-29T04:02:07;15.39;92.75
71088;SHT31;58747;50.674;4.616;2022-10-29T04:04:32;15.42;92.64
71088;SHT31;58747;50.674;4.616;2022-10-29T04:06:58;15.41;92.74
71088;SHT31;58747;50.674;4.616;2022-10-29T04:09:23;15.44;92.82
71088;SHT31;58747;50.674;4.616;2022-10-29T04:11:48;15.45;92.62
71088;SHT31;58747;50.674;4.616;2022-10-29T04:14:14;15.47;92.38
71088;SHT31;58747;50.674;4.616;2022-10-29T04:16:39;15.51;92.17
71088;SHT31;58747;50.674;4.616;2022-10-29T04:19:05;15.45;92.32
71088;SHT31;58747;50.674;4.616;2022-10-29T04:21:30;15.51;92.09
71088;SHT31;58747;50.674;4.616;2022-10-29T04:23:55;15.52;91.83
71088;SHT31;58747;50.674;4.616;2022-10-29T04:26:21;15.59;91.49
71088;SHT31;58747;50.674;4.616;2022-10-29T04:28:50;15.68;91.21
71088;SHT31;58747;50.674;4.616;2022-10-29T04:31:16;15.75;90.72
71088;SHT31;58747;50.674;4.616;2022-10-29T04:33:42;15.72;90.70
71088;SHT31;58747;50.674;4.616;2022-10-29T04:36:08;15.76;90.57
71088;SHT31;58747;50.674;4.616;2022-10-29T04:38:33;15.76;90.28
71088;SHT31;58747;50.674;4.616;2022-10-29T04:40:59;15.79;90.16
71088;SHT31;58747;50.674;4.616;2022-10-29T04:43:26;15.83;90.15
71088;SHT31;58747;50.674;4.616;2022-10-29T04:45:52;15.79;89.99
71088;SHT31;58747;50.674;4.616;2022-10-29T04:48:18;15.82;89.85
71088;SHT31;58747;50.674;4.616;2022-10-29T04:50:44;15.85;89.68
71088;SHT31;58747;50.674;4.616;2022-10-29T04:53:09;15.89;89.74
71088;SHT31;58747;50.674;4.616;2022-10-29T04:55:36;15.86;89.67
71088;SHT31;58747;50.674;4.616;2022-10-29T04:58:03;15.85;89.56
71088;SHT31;58747;50.674;4.616;2022-10-29T05:00:28;15.89;89.65
71088;SHT31;58747;50.674;4.616;2022-10-29T05:02:54;15.90;89.51
71088;SHT31;58747;50.674;4.616;2022-10-29T05:05:20;15.90;89.59
71088;SHT31;58747;50.674;4.616;2022-10-29T05:07:46;15.92;89.13
71088;SHT31;58747;50.674;4.616;2022-10-29T05:10:11;15.93;88.96
71088;SHT31;58747;50.674;4.616;2022-10-29T05:12:37;15.90;89.03
71088;SHT31;58747;50.674;4.616;2022-10-29T05:15:03;15.85;89.08
71088;SHT31;58747;50.674;4.616;2022-10-29T05:17:29;15.85;89.14
71088;SHT31;58747;50.674;4.616;2022-10-29T05:19:54;15.78;89.15
71088;SHT31;58747;50.674;4.616;2022-10-29T05:22:19;15.72;89.32
71088;SHT31;58747;50.674;4.616;2022-10-29T05:24:45;15.75;89.29
71088;SHT31;58747;50.674;4.616;2022-10-29T05:27:10;15.75;89.13
71088;SHT31;58747;50.674;4.616;2022-10-29T05:29:36;15.69;89.16
71088;SHT31;58747;50.674;4.616;2022-10-29T05:32:01;15.66;89.28
71088;SHT31;58747;50.674;4.616;2022-10-29T05:34:26;15.59;89.45
71088;SHT31;58747;50.674;4.616;2022-10-29T05:36:52;15.63;89.18
71088;SHT31;58747;50.674;4.616;2022-10-29T05:39:17;15.68;89.04
71088;SHT31;58747;50.674;4.616;2022-10-29T05:41:44;15.65;89.04
71088;SHT31;58747;50.674;4.616;2022-10-29T05:44:10;15.62;89.13
71088;SHT31;58747;50.674;4.616;2022-10-29T05:46:35;15.59;89.25
71088;SHT31;58747;50.674;4.616;2022-10-29T05:49:01;15.62;89.05
71088;SHT31;58747;50.674;4.616;2022-10-29T05:51:26;15.63;88.84
71088;SHT31;58747;50.674;4.616;2022-10-29T05:53:51;15.65;88.82
71088;SHT31;58747;50.674;4.616;2022-10-29T05:56:17;15.66;88.76
71088;SHT31;58747;50.674;4.616;2022-10-29T05:58:42;15.65;88.65
71088;SHT31;58747;50.674;4.616;2022-10-29T06:01:08;15.63;88.72
71088;SHT31;58747;50.674;4.616;2022-10-29T06:03:35;15.62;88.69
71088;SHT31;58747;50.674;4.616;2022-10-29T06:06:00;15.58;88.71
71088;SHT31;58747;50.674;4.616;2022-10-29T06:08:26;15.57;88.72
71088;SHT31;58747;50.674;4.616;2022-10-29T06:10:51;15.55;88.80
71088;SHT31;58747;50.674;4.616;2022-10-29T06:13:19;15.51;88.77
71088;SHT31;58747;50.674;4.616;2022-10-29T06:15:46;15.57;88.68
71088;SHT31;58747;50.674;4.616;2022-10-29T06:18:12;15.59;88.70
71088;SHT31;58747;50.674;4.616;2022-10-29T06:20:38;15.61;88.50
71088;SHT31;58747;50.674;4.616;2022-10-29T06:23:04;15.59;88.65
71088;SHT31;58747;50.674;4.616;2022-10-29T06:25:30;15.66;88.25
71088;SHT31;58747;50.674;4.616;2022-10-29T06:28:03;15.68;88.25
71088;SHT31;58747;50.674;4.616;2022-10-29T06:30:30;15.66;88.17
71088;SHT31;58747;50.674;4.616;2022-10-29T06:32:57;15.73;87.66
71088;SHT31;58747;50.674;4.616;2022-10-29T06:35:22;15.78;87.66
71088;SHT31;58747;50.674;4.616;2022-10-29T06:37:47;15.78;87.68
71088;SHT31;58747;50.674;4.616;2022-10-29T06:40:13;15.75;87.54
71088;SHT31;58747;50.674;4.616;2022-10-29T06:42:38;15.79;87.46
71088;SHT31;58747;50.674;4.616;2022-10-29T06:45:04;15.83;87.28
71088;SHT31;58747;50.674;4.616;2022-10-29T06:47:29;15.82;87.28
71088;SHT31;58747;50.674;4.616;2022-10-29T06:49:55;15.87;87.01
71088;SHT31;58747;50.674;4.616;2022-10-29T06:52:21;15.83;87.05
71088;SHT31;58747;50.674;4.616;2022-10-29T06:54:46;15.83;86.95
71088;SHT31;58747;50.674;4.616;2022-10-29T06:57:11;15.81;87.22
71088;SHT31;58747;50.674;4.616;2022-10-29T06:59:37;15.82;86.97
71088;SHT31;58747;50.674;4.616;2022-10-29T07:02:02;15.81;87.11
71088;SHT31;58747;50.674;4.616;2022-10-29T07:04:27;15.90;86.69
71088;SHT31;58747;50.674;4.616;2022-10-29T07:06:53;15.93;86.73
71088;SHT31;58747;50.674;4.616;2022-10-29T07:09:18;15.95;86.42
71088;SHT31;58747;50.674;4.616;2022-10-29T07:11:43;15.95;86.26
71088;SHT31;58747;50.674;4.616;2022-10-29T07:14:09;16.00;86.24
71088;SHT31;58747;50.674;4.616;2022-10-29T07:16:35;15.96;86.38
71088;SHT31;58747;50.674;4.616;2022-10-29T07:19:01;15.92;86.64
71088;SHT31;58747;50.674;4.616;2022-10-29T07:21:27;15.92;86.57
71088;SHT31;58747;50.674;4.616;2022-10-29T07:23:52;16.00;86.16
71088;SHT31;58747;50.674;4.616;2022-10-29T07:26:18;16.02;86.22
71088;SHT31;58747;50.674;4.616;2022-10-29T07:28:43;16.06;85.92
71088;SHT31;58747;50.674;4.616;2022-10-29T07:31:08;16.13;85.72
71088;SHT31;58747;50.674;4.616;2022-10-29T07:33:34;16.14;85.67
71088;SHT31;58747;50.674;4.616;2022-10-29T07:35:59;16.21;85.31
71088;SHT31;58747;50.674;4.616;2022-10-29T07:38:25;16.27;85.44
71088;SHT31;58747;50.674;4.616;2022-10-29T07:40:52;16.33;84.89
71088;SHT31;58747;50.674;4.616;2022-10-29T07:43:18;16.41;84.97
71088;SHT31;58747;50.674;4.616;2022-10-29T07:45:45;16.48;84.03
71088;SHT31;58747;50.674;4.616;2022-10-29T07:48:13;16.60;83.63
71088;SHT31;58747;50.674;4.616;2022-10-29T07:50:38;16.69;83.22
71088;SHT31;58747;50.674;4.616;2022-10-29T07:53:05;16.79;82.75
71088;SHT31;58747;50.674;4.616;2022-10-29T07:55:31;16.89;82.31
71088;SHT31;58747;50.674;4.616;2022-10-29T07:57:57;16.99;81.80
71088;SHT31;58747;50.674;4.616;2022-10-29T08:00:28;17.08;81.32
71088;SHT31;58747;50.674;4.616;2022-10-29T08:02:54;17.19;80.84
71088;SHT31;58747;50.674;4.616;2022-10-29T08:05:20;17.20;80.75
71088;SHT31;58747;50.674;4.616;2022-10-29T08:07:45;17.24;80.25
71088;SHT31;58747;50.674;4.616;2022-10-29T08:10:11;17.27;80.36
71088;SHT31;58747;50.674;4.616;2022-10-29T08:12:36;17.26;80.34
71088;SHT31;58747;50.674;4.616;2022-10-29T08:15:01;17.27;80.01
71088;SHT31;58747;50.674;4.616;2022-10-29T08:17:31;17.23;80.34
71088;SHT31;58747;50.674;4.616;2022-10-29T08:19:56;17.34;80.25
71088;SHT31;58747;50.674;4.616;2022-10-29T08:22:22;17.43;79.41
71088;SHT31;58747;50.674;4.616;2022-10-29T08:24:48;17.43;79.19
71088;SHT31;58747;50.674;4.616;2022-10-29T08:27:13;17.47;79.25
71088;SHT31;58747;50.674;4.616;2022-10-29T08:29:38;17.43;79.49
71088;SHT31;58747;50.674;4.616;2022-10-29T08:32:04;17.39;79.71
71088;SHT31;58747;50.674;4.616;2022-10-29T08:34:29;17.37;79.57
71088;SHT31;58747;50.674;4.616;2022-10-29T08:36:54;17.40;79.47
71088;SHT31;58747;50.674;4.616;2022-10-29T08:39:20;17.43;79.21
71088;SHT31;58747;50.674;4.616;2022-10-29T08:50:27;17.91;77.28
71088;SHT31;58747;50.674;4.616;2022-10-29T08:52:54;18.15;76.71
71088;SHT31;58747;50.674;4.616;2022-10-29T08:55:23;18.32;76.20
71088;SHT31;58747;50.674;4.616;2022-10-29T08:57:58;18.46;75.57
71088;SHT31;58747;50.674;4.616;2022-10-29T09:00:51;18.55;74.98
71088;SHT31;58747;50.674;4.616;2022-10-29T09:03:18;18.66;74.37
71088;SHT31;58747;50.674;4.616;2022-10-29T09:08:33;18.87;73.87
71088;SHT31;58747;50.674;4.616;2022-10-29T09:17:17;19.44;72.08
71088;SHT31;58747;50.674;4.616;2022-10-29T09:22:42;19.82;71.01
71088;SHT31;58747;50.674;4.616;2022-10-29T09:33:42;20.54;67.98
71088;SHT31;58747;50.674;4.616;2022-10-29T09:36:14;20.67;67.78
71088;SHT31;58747;50.674;4.616;2022-10-29T09:39:09;20.92;66.74
71088;SHT31;58747;50.674;4.616;2022-10-29T09:41:33;21.07;65.94
71088;SHT31;58747;50.674;4.616;2022-10-29T09:44:05;21.27;65.96
71088;SHT31;58747;50.674;4.616;2022-10-29T09:52:01;21.53;63.35
71088;SHT31;58747;50.674;4.616;2022-10-29T09:54:28;21.67;63.51
71088;SHT31;58747;50.674;4.616;2022-10-29T09:56:56;21.77;62.89
71088;SHT31;58747;50.674;4.616;2022-10-29T10:01:50;21.98;61.86
71088;SHT31;58747;50.674;4.616;2022-10-29T10:04:25;22.22;61.27
71088;SHT31;58747;50.674;4.616;2022-10-29T10:07:04;22.28;61.26
71088;SHT31;58747;50.674;4.616;2022-10-29T10:09:50;22.35;60.36
71088;SHT31;58747;50.674;4.616;2022-10-29T10:12:21;22.49;60.38
71088;SHT31;58747;50.674;4.616;2022-10-29T10:14:47;22.71;59.52
71088;SHT31;58747;50.674;4.616;2022-10-29T10:17:13;22.67;59.19
71088;SHT31;58747;50.674;4.616;2022-10-29T10:19:45;22.74;58.94
71088;SHT31;58747;50.674;4.616;2022-10-29T10:22:18;22.61;59.01
71088;SHT31;58747;50.674;4.616;2022-10-29T10:24:44;22.80;58.97
71088;SHT31;58747;50.674;4.616;2022-10-29T10:32:27;24.07;54.19
71088;SHT31;58747;50.674;4.616;2022-10-29T10:34:53;24.38;53.93
71088;SHT31;58747;50.674;4.616;2022-10-29T10:37:19;24.04;54.00
71088;SHT31;58747;50.674;4.616;2022-10-29T10:40:05;24.14;53.62
71088;SHT31;58747;50.674;4.616;2022-10-29T10:42:37;24.13;53.96
71088;SHT31;58747;50.674;4.616;2022-10-29T10:45:16;24.21;53.68
71088;SHT31;58747;50.674;4.616;2022-10-29T10:47:49;24.28;53.73
71088;SHT31;58747;50.674;4.616;2022-10-29T10:50:28;24.07;54.10
71088;SHT31;58747;50.674;4.616;2022-10-29T10:52:56;24.13;53.52
71088;SHT31;58747;50.674;4.616;2022-10-29T10:55:38;24.04;53.55
71088;SHT31;58747;50.674;4.616;2022-10-29T11:00:39;24.38;53.23
71088;SHT31;58747;50.674;4.616;2022-10-29T11:08:25;24.40;52.67
71088;SHT31;58747;50.674;4.616;2022-10-29T11:11:14;24.33;53.21
71088;SHT31;58747;50.674;4.616;2022-10-29T11:13:59;24.25;53.81
71088;SHT31;58747;50.674;4.616;2022-10-29T11:16:40;24.13;54.04
71088;SHT31;58747;50.674;4.616;2022-10-29T11:22:55;25.58;50.24
71088;SHT31;58747;50.674;4.616;2022-10-29T11:25:51;26.49;47.70
71088;SHT31;58747;50.674;4.616;2022-10-29T11:29:03;26.87;46.63
71088;SHT31;58747;50.674;4.616;2022-10-29T11:34:42;26.64;47.76
71088;SHT31;58747;50.674;4.616;2022-10-29T11:37:20;26.90;46.73
71088;SHT31;58747;50.674;4.616;2022-10-29T11:39:56;27.59;44.90
71088;SHT31;58747;50.674;4.616;2022-10-29T11:42:24;27.52;45.53
71088;SHT31;58747;50.674;4.616;2022-10-29T11:44:50;27.48;45.35
71088;SHT31;58747;50.674;4.616;2022-10-29T11:55:50;25.30;49.99
71088;SHT31;58747;50.674;4.616;2022-10-29T11:58:24;24.88;52.08
71088;SHT31;58747;50.674;4.616;2022-10-29T12:01:01;24.61;50.99
71088;SHT31;58747;50.674;4.616;2022-10-29T12:06:39;24.17;52.75
71088;SHT31;58747;50.674;4.616;2022-10-29T12:19:24;24.18;53.92
71088;SHT31;58747;50.674;4.616;2022-10-29T12:25:07;24.20;54.73
71088;SHT31;58747;50.674;4.616;2022-10-29T12:27:48;24.17;54.71
71088;SHT31;58747;50.674;4.616;2022-10-29T12:30:21;24.21;54.37
71088;SHT31;58747;50.674;4.616;2022-10-29T12:35:44;24.28;53.44
71088;SHT31;58747;50.674;4.616;2022-10-29T12:38:21;24.34;54.44
71088;SHT31;58747;50.674;4.616;2022-10-29T12:40:57;24.34;53.84
71088;SHT31;58747;50.674;4.616;2022-10-29T12:43:26;24.37;52.92
71088;SHT31;58747;50.674;4.616;2022-10-29T12:46:01;24.37;52.56
71088;SHT31;58747;50.674;4.616;2022-10-29T12:49:07;24.30;52.13
71088;SHT31;58747;50.674;4.616;2022-10-29T12:54:30;24.23;53.09
71088;SHT31;58747;50.674;4.616;2022-10-29T12:57:32;24.18;53.09
71088;SHT31;58747;50.674;4.616;2022-10-29T13:00:30;24.03;53.18
71088;SHT31;58747;50.674;4.616;2022-10-29T13:02:56;23.94;53.30
71088;SHT31;58747;50.674;4.616;2022-10-29T13:13:02;23.80;53.93
71088;SHT31;58747;50.674;4.616;2022-10-29T13:15:35;23.90;53.85
71088;SHT31;58747;50.674;4.616;2022-10-29T13:18:19;24.00;52.70
71088;SHT31;58747;50.674;4.616;2022-10-29T13:20:51;24.09;52.42
71088;SHT31;58747;50.674;4.616;2022-10-29T13:30:46;23.69;52.48
71088;SHT31;58747;50.674;4.616;2022-10-29T13:41:19;23.55;54.54
71088;SHT31;58747;50.674;4.616;2022-10-29T13:44:04;23.48;55.64
71088;SHT31;58747;50.674;4.616;2022-10-29T13:46:44;23.34;56.12
71088;SHT31;58747;50.674;4.616;2022-10-29T13:49:27;23.28;56.05
71088;SHT31;58747;50.674;4.616;2022-10-29T13:54:46;23.03;56.62
71088;SHT31;58747;50.674;4.616;2022-10-29T13:57:36;23.04;56.61
71088;SHT31;58747;50.674;4.616;2022-10-29T14:00:05;22.93;56.92
71088;SHT31;58747;50.674;4.616;2022-10-29T14:07:55;22.83;57.27
71088;SHT31;58747;50.674;4.616;2022-10-29T14:10:24;22.81;57.66
71088;SHT31;58747;50.674;4.616;2022-10-29T14:12:55;22.81;57.94
71088;SHT31;58747;50.674;4.616;2022-10-29T14:15:21;22.74;58.41
71088;SHT31;58747;50.674;4.616;2022-10-29T14:17:46;22.63;58.02
71088;SHT31;58747;50.674;4.616;2022-10-29T14:20:23;22.57;58.29
71088;SHT31;58747;50.674;4.616;2022-10-29T14:22:49;22.60;58.01
71088;SHT31;58747;50.674;4.616;2022-10-29T14:28:24;22.55;57.92
71088;SHT31;58747;50.674;4.616;2022-10-29T14:31:03;22.48;57.86
71088;SHT31;58747;50.674;4.616;2022-10-29T14:41:04;22.29;58.48
71088;SHT31;58747;50.674;4.616;2022-10-29T14:43:30;22.23;58.81
71088;SHT31;58747;50.674;4.616;2022-10-29T14:46:08;22.23;58.77
71088;SHT31;58747;50.674;4.616;2022-10-29T14:48:35;22.18;58.86
71088;SHT31;58747;50.674;4.616;2022-10-29T14:51:01;22.16;59.58
71088;SHT31;58747;50.674;4.616;2022-10-29T14:53:28;22.11;59.39
71088;SHT31;58747;50.674;4.616;2022-10-29T14:55:55;22.09;59.43
71088;SHT31;58747;50.674;4.616;2022-10-29T14:58:26;22.05;59.54
71088;SHT31;58747;50.674;4.616;2022-10-29T15:00:56;22.06;59.67
71088;SHT31;58747;50.674;4.616;2022-10-29T15:03:23;21.99;60.22
71088;SHT31;58747;50.674;4.616;2022-10-29T15:05:50;21.92;60.27
71088;SHT31;58747;50.674;4.616;2022-10-29T15:08:21;21.87;60.60
71088;SHT31;58747;50.674;4.616;2022-10-29T15:10:56;21.85;60.61
71088;SHT31;58747;50.674;4.616;2022-10-29T15:16:05;21.77;60.98
71088;SHT31;58747;50.674;4.616;2022-10-29T15:18:32;21.77;60.84
71088;SHT31;58747;50.674;4.616;2022-10-29T15:20:59;21.75;61.13
71088;SHT31;58747;50.674;4.616;2022-10-29T15:23:31;21.68;61.36
71088;SHT31;58747;50.674;4.616;2022-10-29T15:26:06;21.61;61.44
71088;SHT31;58747;50.674;4.616;2022-10-29T15:28:38;21.55;61.78
71088;SHT31;58747;50.674;4.616;2022-10-29T15:31:04;21.57;62.05
71088;SHT31;58747;50.674;4.616;2022-10-29T15:33:30;21.55;61.97
71088;SHT31;58747;50.674;4.616;2022-10-29T15:36:03;21.49;62.63
71088;SHT31;58747;50.674;4.616;2022-10-29T15:43:54;21.37;61.90
71088;SHT31;58747;50.674;4.616;2022-10-29T15:46:25;21.32;62.32
71088;SHT31;58747;50.674;4.616;2022-10-29T15:48:51;21.26;62.50
71088;SHT31;58747;50.674;4.616;2022-10-29T15:51:20;21.19;62.65
71088;SHT31;58747;50.674;4.616;2022-10-29T15:53:48;21.14;62.77
71088;SHT31;58747;50.674;4.616;2022-10-29T15:56:13;21.07;62.83
71088;SHT31;58747;50.674;4.616;2022-10-29T15:58:39;21.02;63.19
71088;SHT31;58747;50.674;4.616;2022-10-29T16:01:05;20.93;63.59
71088;SHT31;58747;50.674;4.616;2022-10-29T16:03:30;20.82;64.16
71088;SHT31;58747;50.674;4.616;2022-10-29T16:05:59;20.81;64.15
71088;SHT31;58747;50.674;4.616;2022-10-29T16:08:42;20.81;64.06
71088;SHT31;58747;50.674;4.616;2022-10-29T16:11:13;20.75;63.75
71088;SHT31;58747;50.674;4.616;2022-10-29T16:13:39;20.71;64.13
71088;SHT31;58747;50.674;4.616;2022-10-29T16:16:09;20.65;64.20
71088;SHT31;58747;50.674;4.616;2022-10-29T16:18:36;20.64;63.98
71088;SHT31;58747;50.674;4.616;2022-10-29T16:21:04;20.59;64.12
71088;SHT31;58747;50.674;4.616;2022-10-29T16:23:31;20.61;63.76
71088;SHT31;58747;50.674;4.616;2022-10-29T16:25:56;20.54;63.82
71088;SHT31;58747;50.674;4.616;2022-10-29T16:28:21;20.51;64.12
71088;SHT31;58747;50.674;4.616;2022-10-29T16:30:52;20.44;64.19
71088;SHT31;58747;50.674;4.616;2022-10-29T16:33:18;20.35;64.30
71088;SHT31;58747;50.674;4.616;2022-10-29T16:35:43;20.34;64.55
71088;SHT31;58747;50.674;4.616;2022-10-29T16:38:08;20.35;64.24
71088;SHT31;58747;50.674;4.616;2022-10-29T16:40:35;20.27;64.40
71088;SHT31;58747;50.674;4.616;2022-10-29T16:43:00;20.27;64.43
71088;SHT31;58747;50.674;4.616;2022-10-29T16:45:28;20.20;64.60
71088;SHT31;58747;50.674;4.616;2022-10-29T16:47:57;20.14;64.97
71088;SHT31;58747;50.674;4.616;2022-10-29T16:50:24;20.12;65.02
71088;SHT31;58747;50.674;4.616;2022-10-29T16:53:00;20.06;65.25
71088;SHT31;58747;50.674;4.616;2022-10-29T16:55:27;20.07;65.08
71088;SHT31;58747;50.674;4.616;2022-10-29T16:57:53;20.12;64.40
71088;SHT31;58747;50.674;4.616;2022-10-29T17:00:18;20.06;64.42
71088;SHT31;58747;50.674;4.616;2022-10-29T17:02:43;20.03;64.62
71088;SHT31;58747;50.674;4.616;2022-10-29T17:05:10;20.03;64.28
71088;SHT31;58747;50.674;4.616;2022-10-29T17:07:36;19.98;64.69
71088;SHT31;58747;50.674;4.616;2022-10-29T17:10:02;19.93;64.41
71088;SHT31;58747;50.674;4.616;2022-10-29T17:12:27;19.93;64.22
71088;SHT31;58747;50.674;4.616;2022-10-29T17:14:52;19.87;64.10
71088;SHT31;58747;50.674;4.616;2022-10-29T17:17:18;19.86;63.86
71088;SHT31;58747;50.674;4.616;2022-10-29T17:19:43;19.82;64.18
71088;SHT31;58747;50.674;4.616;2022-10-29T17:22:08;19.87;63.73
71088;SHT31;58747;50.674;4.616;2022-10-29T17:24:38;19.86;64.19
71088;SHT31;58747;50.674;4.616;2022-10-29T17:27:03;19.77;64.50
71088;SHT31;58747;50.674;4.616;2022-10-29T17:29:29;19.73;64.61
71088;SHT31;58747;50.674;4.616;2022-10-29T17:31:54;19.61;65.28
71088;SHT31;58747;50.674;4.616;2022-10-29T17:34:19;19.58;65.95
71088;SHT31;58747;50.674;4.616;2022-10-29T17:36:45;19.51;66.07
71088;SHT31;58747;50.674;4.616;2022-10-29T17:39:10;19.48;66.14
71088;SHT31;58747;50.674;4.616;2022-10-29T17:41:36;19.45;65.49
71088;SHT31;58747;50.674;4.616;2022-10-29T17:44:01;19.46;65.45
71088;SHT31;58747;50.674;4.616;2022-10-29T17:46:27;19.45;65.29
71088;SHT31;58747;50.674;4.616;2022-10-29T17:48:56;19.46;65.05
71088;SHT31;58747;50.674;4.616;2022-10-29T17:51:21;19.44;65.22
71088;SHT31;58747;50.674;4.616;2022-10-29T17:53:47;19.44;64.83
71088;SHT31;58747;50.674;4.616;2022-10-29T17:56:12;19.39;65.13
71088;SHT31;58747;50.674;4.616;2022-10-29T17:58:38;19.35;64.99
71088;SHT31;58747;50.674;4.616;2022-10-29T18:01:08;19.32;65.10
71088;SHT31;58747;50.674;4.616;2022-10-29T18:03:34;19.29;65.17
71088;SHT31;58747;50.674;4.616;2022-10-29T18:06:01;19.31;64.91
71088;SHT31;58747;50.674;4.616;2022-10-29T18:08:28;19.28;65.34
71088;SHT31;58747;50.674;4.616;2022-10-29T18:11:07;19.29;64.72
71088;SHT31;58747;50.674;4.616;2022-10-29T18:13:34;19.25;65.02
71088;SHT31;58747;50.674;4.616;2022-10-29T18:16:02;19.24;64.89
71088;SHT31;58747;50.674;4.616;2022-10-29T18:18:28;19.31;64.56